Aviation Digital Data Service (ADDS)

Output produced by METARs form (0241 UTC 29 November 2020)
found at http://www.aviationweather.gov/metar/data/
 
Forecast for: VHHH (HONG KONG INTL , HK)
Text: TAF VHHH 282300Z 2900/3006 02010KT 9999 FEW040 TX23/2906Z TX22/3006Z TN18/2922Z
Forecast period: 0000 UTC 29 November 2020 to 0600 UTC 30 November 2020
Forecast type: FROM: standard forecast or significant change
Winds: from the NNE (20 degrees) at 12 MPH (10 knots; 5.1 m/s)
Visibility: 6 or more miles (10+ km)
Ceiling: at least 12,000 feet AGL
Clouds: few clouds at 4000 feet AGL
Weather: no significant weather forecast for this period